Time;durP1;ratioP1;P1;durP2;ratioP2;P2;SDS_P1;SDS_P2;PMS_P1;PMS_P2;Temp;Humidity;BMP_temperature;BMP_pressure;BME280_temperature;BME280_humidity;BME280_pressure;Samples;Min_cycle;Max_cycle;Signal;HPM_P1;HPM_P2
2021/08/13 00:02:03;;;;;;;7.47;4.30;;;;;;;17.67;59.18;101148.36;1778930;79;21047;-75
2021/08/13 00:04:29;;;;;;;5.17;3.72;;;;;;;17.64;59.16;101155.50;1816950;79;20972;-75
2021/08/13 00:06:55;;;;;;;8.18;4.25;;;;;;;17.62;59.15;101155.72;1817103;79;21057;-74
2021/08/13 00:09:24;;;;;;;8.15;5.00;;;;;;;17.58;59.13;101151.74;1817250;79;21118;-74
2021/08/13 00:11:50;;;;;;;6.12;4.92;;;;;;;17.54;59.17;101149.59;1816879;79;21050;-75
2021/08/13 00:14:16;;;;;;;9.95;5.87;;;;;;;17.48;59.17;101145.33;1819391;78;21011;-74
2021/08/13 00:16:42;;;;;;;7.55;4.65;;;;;;;17.45;59.18;101145.69;1819599;78;21038;-75
2021/08/13 00:19:08;;;;;;;6.45;4.33;;;;;;;17.40;59.23;101150.86;1819772;78;21073;-74
2021/08/13 00:21:34;;;;;;;8.10;4.17;;;;;;;17.36;59.26;101150.92;1814117;78;21558;-73
2021/08/13 00:24:00;;;;;;;8.78;4.22;;;;;;;17.32;59.30;101148.80;1781716;80;21468;-74
2021/08/13 00:26:30;;;;;;;9.65;4.55;;;;;;;17.27;59.34;101149.41;1781672;80;21035;-74
2021/08/13 00:28:56;;;;;;;6.33;4.72;;;;;;;17.26;59.38;101149.09;1781476;80;20992;-74
2021/08/13 00:31:22;;;;;;;10.20;4.40;;;;;;;17.21;59.44;101151.52;1781825;78;21030;-74
2021/08/13 00:33:48;;;;;;;6.70;4.70;;;;;;;17.20;59.46;101149.03;1812368;78;21122;-74
2021/08/13 00:36:14;;;;;;;6.62;4.37;;;;;;;17.19;59.50;101150.05;1819949;78;20983;-74
2021/08/13 00:38:40;;;;;;;6.17;3.90;;;;;;;17.15;59.54;101146.91;1820305;78;21484;-74
2021/08/13 00:41:06;;;;;;;6.50;4.62;;;;;;;17.12;59.59;101148.66;1804689;78;21582;-74
2021/08/13 00:43:32;;;;;;;8.23;5.22;;;;;;;17.07;59.66;101151.08;1781768;79;20999;-74
2021/08/13 00:45:58;;;;;;;5.67;4.35;;;;;;;17.02;59.74;101142.77;1781255;80;21139;-74
2021/08/13 00:48:24;;;;;;;6.42;4.50;;;;;;;16.97;59.79;101142.50;1781598;80;20991;-74
2021/08/13 00:50:50;;;;;;;6.22;5.03;;;;;;;16.94;59.86;101137.50;1807396;78;21107;-74
2021/08/13 00:53:16;;;;;;;6.92;4.78;;;;;;;16.91;59.92;101140.08;1792753;78;20859;-74
2021/08/13 00:55:42;;;;;;;7.35;4.30;;;;;;;16.88;60.02;101143.16;1820266;78;21050;-74
2021/08/13 00:58:08;;;;;;;7.08;5.03;;;;;;;16.88;60.05;101139.63;1792351;78;21069;-74
2021/08/13 01:00:34;;;;;;;6.53;5.00;;;;;;;16.88;60.10;101143.66;1820104;78;21053;-74
2021/08/13 01:03:00;;;;;;;10.23;5.10;;;;;;;16.87;60.17;101143.34;1805436;78;20976;-74
2021/08/13 01:05:26;;;;;;;7.03;4.97;;;;;;;16.84;60.23;101145.07;1789575;80;20987;-74
2021/08/13 01:07:52;;;;;;;8.03;5.05;;;;;;;16.84;60.26;101147.77;1789202;80;20995;-74
2021/08/13 01:10:18;;;;;;;8.43;5.50;;;;;;;16.82;60.32;101143.06;1789744;80;21042;-74
2021/08/13 01:13:18;;;;;;;9.28;5.53;;;;;;;16.82;60.35;101144.41;1788955;80;21483;-74
2021/08/13 01:15:53;;;;;;;6.87;5.05;;;;;;;16.79;60.41;101146.98;1789450;80;20996;-74
2021/08/13 01:18:25;;;;;;;7.08;4.78;;;;;;;16.75;60.48;101147.55;1789580;80;21613;-75
2021/08/13 01:21:18;;;;;;;6.47;4.87;;;;;;;16.72;60.57;101143.39;1785920;78;21958;-74
2021/08/13 01:23:52;;;;;;;9.05;5.15;;;;;;;16.71;60.62;101146.30;1795909;78;21869;-74
2021/08/13 01:26:18;;;;;;;7.80;4.67;;;;;;;16.69;60.69;101144.28;1786676;78;21095;-74
2021/08/13 01:29:08;;;;;;;9.43;4.58;;;;;;;16.66;60.72;101136.59;1789352;78;21094;-74
2021/08/13 01:31:40;;;;;;;;;;;;;;;16.65;60.78;101145.69;1802258;78;21107;-74
2021/08/13 01:34:07;;;;;;;7.05;4.65;;;;;;;16.62;60.86;101138.84;1786552;80;20169;-74
2021/08/13 01:36:33;;;;;;;8.75;5.35;;;;;;;16.59;60.90;101128.95;1788583;80;21146;-74
2021/08/13 01:39:02;;;;;;;7.85;5.35;;;;;;;16.56;60.95;101132.88;1789508;80;20987;-74
2021/08/13 01:41:31;;;;;;;;;;;;;;;16.54;60.98;101132.18;1791985;80;21081;-74
2021/08/13 01:43:57;;;;;;;7.65;5.25;;;;;;;16.52;61.07;101129.36;1789642;80;20152;-74
2021/08/13 01:46:24;;;;;;;7.45;5.50;;;;;;;16.48;61.11;101124.37;1789236;80;21014;-74
2021/08/13 01:48:51;;;;;;;7.50;5.25;;;;;;;16.44;61.16;101123.08;1789643;80;21125;-75
2021/08/13 01:51:18;;;;;;;9.98;4.87;;;;;;;16.41;61.24;101119.92;1773181;78;21003;-74
2021/08/13 01:53:47;;;;;;;13.20;5.55;;;;;;;16.38;61.33;101115.77;1820096;78;21038;-74
2021/08/13 01:56:13;;;;;;;7.75;5.53;;;;;;;16.35;61.41;101113.45;1817477;78;21030;-74
2021/08/13 01:58:39;;;;;;;7.45;5.83;;;;;;;16.35;61.49;101113.97;1819774;78;20983;-74
2021/08/13 02:01:05;;;;;;;5.83;4.95;;;;;;;16.34;61.56;101109.09;1820456;78;21129;-74
2021/08/13 02:03:31;;;;;;;8.58;5.42;;;;;;;16.34;61.63;101107.74;1798682;78;21515;-74
2021/08/13 02:05:57;;;;;;;6.65;5.40;;;;;;;16.33;61.70;101111.95;1811419;78;21632;-74
2021/08/13 02:08:24;;;;;;;7.10;4.87;;;;;;;16.32;61.74;101103.08;1820023;78;20967;-74
2021/08/13 02:10:51;;;;;;;6.03;5.00;;;;;;;16.31;61.81;101104.09;1820164;78;21037;-75
2021/08/13 02:13:18;;;;;;;8.10;5.70;;;;;;;16.29;61.88;101099.39;1755387;80;21194;-74
2021/08/13 02:15:48;;;;;;;8.55;5.22;;;;;;;16.26;61.92;101101.12;1770066;79;21039;-74
2021/08/13 02:18:19;;;;;;;9.30;6.03;;;;;;;16.26;61.99;101108.36;1776796;79;21047;-74
2021/08/13 02:20:45;;;;;;;8.55;5.50;;;;;;;16.25;62.06;101109.41;1816941;79;21508;-74
2021/08/13 02:23:11;;;;;;;10.75;5.20;;;;;;;16.22;62.09;101106.55;1787550;79;21471;-74
2021/08/13 02:25:37;;;;;;;9.20;5.50;;;;;;;16.23;62.13;101110.92;1806214;79;21282;-74
2021/08/13 02:28:03;;;;;;;7.55;5.58;;;;;;;16.23;62.17;101109.58;1817049;79;20931;-74
2021/08/13 02:30:30;;;;;;;7.78;5.72;;;;;;;16.22;62.22;101109.24;1778778;79;21420;-74
2021/08/13 02:32:56;;;;;;;7.55;5.53;;;;;;;16.21;62.25;101111.64;1782589;79;21334;-74
2021/08/13 02:35:22;;;;;;;8.83;5.70;;;;;;;16.21;62.29;101107.59;1781427;79;21053;-74
2021/08/13 02:37:54;;;;;;;9.45;5.72;;;;;;;16.21;62.33;101110.30;1784332;79;21174;-74
2021/08/13 02:40:27;;;;;;;7.30;5.70;;;;;;;16.21;62.36;101106.25;1817284;79;21529;-74
2021/08/13 02:43:09;;;;;;;8.63;5.25;;;;;;;16.21;62.40;101114.84;1803968;79;21490;-74
2021/08/13 02:45:37;;;;;;;11.18;5.67;;;;;;;16.18;62.42;101103.95;1788020;79;21043;-75
2021/08/13 02:48:05;;;;;;;8.98;5.67;;;;;;;16.18;62.45;101109.33;1792346;79;21050;-74
2021/08/13 02:50:32;;;;;;;6.90;5.58;;;;;;;16.17;62.47;101109.00;1816907;79;21906;-74
2021/08/13 02:53:01;;;;;;;9.43;5.72;;;;;;;16.16;62.49;101102.44;1814699;79;20982;-74
2021/08/13 02:55:34;;;;;;;;;;;;;;;16.15;62.54;101106.98;1766521;79;20999;-74
2021/08/13 02:58:05;;;;;;;9.48;5.03;;;;;;;16.15;62.57;101108.88;1772823;80;20976;-74
2021/08/13 03:00:29;;;;;;;6.42;5.40;;;;;;;16.14;62.58;101106.69;1807416;79;21030;-74
2021/08/13 03:02:55;;;;;;;8.63;5.60;;;;;;;16.15;62.61;101112.37;1806672;79;21135;-74
2021/08/13 03:05:22;;;;;;;8.18;5.50;;;;;;;16.15;62.61;101111.56;1807927;79;21023;-74
2021/08/13 03:07:49;;;;;;;7.85;5.62;;;;;;;16.15;62.67;101106.18;1802496;79;21027;-74
2021/08/13 03:10:16;;;;;;;8.65;5.53;;;;;;;16.15;62.68;101111.02;1811497;78;20971;-74
2021/08/13 03:12:42;;;;;;;7.50;5.15;;;;;;;16.15;62.70;101106.18;1801393;79;21023;-74
2021/08/13 03:15:09;;;;;;;8.38;4.95;;;;;;;16.15;62.71;101106.98;1772950;79;21138;-74
2021/08/13 03:17:35;;;;;;;8.88;6.70;;;;;;;16.17;62.75;101109.00;1775760;80;20974;-74
2021/08/13 03:20:03;;;;;;;7.85;5.03;;;;;;;16.18;62.76;101109.33;1775937;79;20992;-74
2021/08/13 03:22:29;;;;;;;7.87;5.97;;;;;;;16.18;62.78;101107.98;1798641;79;21027;-74
2021/08/13 03:24:55;;;;;;;10.23;5.95;;;;;;;16.18;62.82;101107.98;1813584;79;21053;-74
2021/08/13 03:27:22;;;;;;;14.43;6.60;;;;;;;16.17;62.83;101103.61;1795056;79;21032;-74
2021/08/13 03:29:48;;;;;;;9.10;6.17;;;;;;;16.18;62.89;101108.48;1727312;80;21040;-74
2021/08/13 03:32:16;;;;;;;10.40;6.78;;;;;;;16.19;62.91;101104.75;1780623;80;22064;-74
2021/08/13 03:34:42;;;;;;;11.03;7.17;;;;;;;16.20;62.93;101109.12;1714538;81;21007;-74
2021/08/13 03:37:08;;;;;;;11.65;6.45;;;;;;;16.21;62.96;101100.88;1779876;80;21091;-74
2021/08/13 03:39:34;;;;;;;11.35;6.45;;;;;;;16.23;63.01;101102.84;1783940;80;21121;-74
2021/08/13 03:42:00;;;;;;;11.78;6.28;;;;;;;16.24;63.03;101106.38;1783826;80;21537;-74
2021/08/13 03:44:26;;;;;;;8.05;6.17;;;;;;;16.22;63.06;101107.90;1781648;80;21649;-74
2021/08/13 03:46:53;;;;;;;9.33;6.22;;;;;;;16.22;63.10;101107.90;1786005;80;20982;-74
2021/08/13 03:49:19;;;;;;;10.98;6.22;;;;;;;16.22;63.12;101104.41;1782168;80;21090;-74
2021/08/13 03:51:45;;;;;;;10.90;5.97;;;;;;;16.24;63.14;101105.03;1769449;80;21100;-74
2021/08/13 03:54:11;;;;;;;8.65;5.78;;;;;;;16.25;63.13;101096.78;1769904;80;21027;-74
2021/08/13 03:56:37;;;;;;;11.85;6.37;;;;;;;16.28;63.14;101099.09;1774272;80;21062;-74
2021/08/13 03:59:03;;;;;;;12.15;6.78;;;;;;;16.29;63.15;101098.05;1781156;80;21086;-75
2021/08/13 04:01:30;;;;;;;8.90;5.90;;;;;;;16.30;63.17;101095.69;1786152;80;21001;-74
2021/08/13 04:03:57;;;;;;;10.28;6.60;;;;;;;16.32;63.17;101095.00;1785484;80;21106;-74
2021/08/13 04:06:23;;;;;;;9.70;6.05;;;;;;;16.35;63.17;101094.61;1786675;80;21467;-74
2021/08/13 04:08:50;;;;;;;9.58;6.00;;;;;;;16.38;63.20;101091.54;1786613;80;21045;-74
2021/08/13 04:11:16;;;;;;;11.05;6.50;;;;;;;16.43;63.21;101097.16;1781830;80;21046;-74
2021/08/13 04:13:42;;;;;;;7.00;6.22;;;;;;;16.51;63.19;101094.87;1781730;79;20986;-74
2021/08/13 04:16:08;;;;;;;15.15;7.20;;;;;;;16.59;63.16;101095.30;1788561;79;21081;-74
2021/08/13 04:18:34;;;;;;;15.03;8.30;;;;;;;16.69;63.18;101094.45;1773955;80;21081;-74
2021/08/13 04:21:00;;;;;;;10.38;7.08;;;;;;;16.94;63.26;101101.13;1779191;80;21037;-74
2021/08/13 04:23:26;;;;;;;13.65;6.12;;;;;;;17.63;63.30;101092.62;1789884;80;21448;-75
2021/08/13 04:25:52;;;;;;;9.13;5.72;;;;;;;18.14;62.88;101084.98;1771138;80;21057;-74
2021/08/13 04:28:18;;;;;;;7.97;5.80;;;;;;;18.37;62.51;101078.71;1768876;80;21466;-74
2021/08/13 04:30:44;;;;;;;9.85;5.40;;;;;;;18.51;62.36;101085.55;1781269;80;20993;-75
2021/08/13 04:33:11;;;;;;;8.50;5.62;;;;;;;18.87;62.24;101090.05;1778942;80;21033;-74
2021/08/13 04:35:38;;;;;;;11.08;6.08;;;;;;;19.26;61.95;101085.98;1772980;80;20990;-74
2021/08/13 04:38:04;;;;;;;10.72;6.10;;;;;;;19.51;61.53;101087.54;1790187;79;21046;-75
2021/08/13 04:40:30;;;;;;;12.13;6.03;;;;;;;19.82;61.31;101080.05;1789853;80;21181;-74
2021/08/13 04:42:56;;;;;;;10.32;6.30;;;;;;;19.78;60.81;101081.52;1768421;80;21639;-74
2021/08/13 04:45:22;;;;;;;10.48;5.95;;;;;;;19.68;60.59;101083.84;1768804;80;21534;-74
2021/08/13 04:47:48;;;;;;;9.78;5.75;;;;;;;20.09;60.70;101087.02;1768465;81;21029;-74
2021/08/13 04:50:14;;;;;;;14.20;5.50;;;;;;;20.43;59.88;101081.78;1768808;80;21058;-74
2021/08/13 04:52:48;;;;;;;13.18;5.97;;;;;;;20.18;59.57;101077.62;1767933;80;21064;-75
2021/08/13 04:55:23;;;;;;;8.43;6.45;;;;;;;20.02;59.46;101086.22;1768779;80;21014;-75
2021/08/13 04:57:50;;;;;;;11.53;6.35;;;;;;;19.89;59.28;101088.98;1769982;80;21005;-75
2021/08/13 05:00:16;;;;;;;8.58;5.65;;;;;;;20.13;59.30;101099.09;1768654;80;21474;-75
2021/08/13 05:02:42;;;;;;;14.70;5.87;;;;;;;20.35;58.95;101105.90;1774940;80;21069;-74
2021/08/13 05:05:09;;;;;;;11.60;5.05;;;;;;;20.26;58.67;101104.47;1778127;80;21591;-74
2021/08/13 05:07:35;;;;;;;10.58;5.60;;;;;;;20.27;58.59;101107.49;1768152;79;21018;-75
2021/08/13 05:10:12;;;;;;;10.80;5.70;;;;;;;20.40;58.54;101106.61;1779742;80;21025;-75
2021/08/13 05:12:38;;;;;;;10.60;6.25;;;;;;;20.52;58.44;101105.38;1787271;80;21050;-76
2021/08/13 05:15:06;;;;;;;10.65;5.62;;;;;;;20.30;58.37;101101.64;1784307;79;21015;-75
2021/08/13 05:17:32;;;;;;;7.83;6.05;;;;;;;20.21;58.42;101101.56;1784987;80;21207;-75
2021/08/13 05:19:58;;;;;;;8.48;6.17;;;;;;;20.11;58.34;101103.91;1782635;79;21512;-75
2021/08/13 05:22:24;;;;;;;7.60;5.50;;;;;;;20.07;58.32;101108.08;1772576;79;21637;-75
2021/08/13 05:24:50;;;;;;;11.05;5.90;;;;;;;20.13;58.31;101107.21;1787594;79;21034;-75
2021/08/13 05:27:16;;;;;;;9.98;6.00;;;;;;;20.29;58.26;101103.23;1770917;79;21504;-75
2021/08/13 05:29:42;;;;;;;7.03;5.17;;;;;;;20.26;58.14;101106.34;1769707;80;21074;-76
2021/08/13 05:32:08;;;;;;;13.38;5.47;;;;;;;20.25;58.13;101110.92;1783146;80;21029;-76
2021/08/13 05:34:34;;;;;;;10.45;6.15;;;;;;;20.38;58.02;101113.59;1783746;80;21041;-75
2021/08/13 05:37:00;;;;;;;11.20;5.47;;;;;;;20.77;58.01;101118.46;1785953;80;21034;-76
2021/08/13 05:39:26;;;;;;;10.13;6.08;;;;;;;21.09;57.74;101121.45;1785244;80;21458;-77
2021/08/13 05:41:52;;;;;;;7.47;5.25;;;;;;;20.91;57.60;101115.96;1775005;80;21068;-76
2021/08/13 05:44:18;;;;;;;12.58;5.47;;;;;;;20.73;57.46;101122.66;1779376;80;21066;-76
2021/08/13 05:46:44;;;;;;;8.78;4.87;;;;;;;20.98;57.30;101114.03;1779064;80;21476;-76
2021/08/13 05:49:10;;;;;;;9.23;5.33;;;;;;;21.48;57.14;101109.97;1772334;80;20995;-76
2021/08/13 05:51:36;;;;;;;9.78;5.78;;;;;;;21.66;56.78;101108.64;1774303;80;21284;-76
2021/08/13 05:54:02;;;;;;;8.78;4.75;;;;;;;21.75;56.50;101112.70;1786027;80;21288;-76
2021/08/13 05:56:28;;;;;;;8.08;5.95;;;;;;;21.81;56.15;101111.83;1785264;80;20985;-76
2021/08/13 05:59:00;;;;;;;8.10;5.03;;;;;;;22.03;56.04;101116.28;1786857;79;20978;-76
2021/08/13 06:01:22;;;;;;;11.35;5.12;;;;;;;22.45;55.71;101105.00;1770910;80;20995;-76
2021/08/13 06:03:48;;;;;;;10.70;4.95;;;;;;;22.71;55.27;101112.78;1769734;80;21039;-76
2021/08/13 06:06:14;;;;;;;8.53;5.33;;;;;;;22.97;55.00;101109.67;1772864;80;21672;-76
2021/08/13 06:08:41;;;;;;;7.55;5.12;;;;;;;23.18;54.69;101109.64;1780283;80;21034;-76
2021/08/13 06:11:07;;;;;;;9.38;5.37;;;;;;;23.17;54.30;101106.08;1769448;81;21011;-76
2021/08/13 06:13:33;;;;;;;9.80;5.40;;;;;;;23.18;54.11;101106.39;1770060;81;20980;-76
2021/08/13 06:15:59;;;;;;;13.22;5.15;;;;;;;23.38;53.90;101109.58;1784869;80;21019;-76
2021/08/13 06:18:25;;;;;;;12.65;4.80;;;;;;;23.48;53.61;101109.55;1788982;80;22729;-76
2021/08/13 06:20:51;;;;;;;8.45;4.92;;;;;;;23.81;53.47;101117.41;1791331;78;20982;-76
2021/08/13 06:23:17;;;;;;;13.48;4.95;;;;;;;23.94;53.11;101117.66;1789658;80;21467;-76
2021/08/13 06:25:43;;;;;;;11.73;5.22;;;;;;;24.05;52.88;101119.54;1789609;80;21510;-76
2021/08/13 06:28:09;;;;;;;12.07;4.65;;;;;;;24.24;52.78;101121.04;1788839;80;20883;-76
2021/08/13 06:30:35;;;;;;;6.72;4.78;;;;;;;24.15;52.38;101121.14;1790536;80;22591;-76
2021/08/13 06:33:01;;;;;;;9.73;5.37;;;;;;;24.22;52.20;101122.36;1789054;80;20986;-76
2021/08/13 06:35:27;;;;;;;9.68;5.85;;;;;;;24.30;52.06;101131.53;1789396;80;21608;-76
2021/08/13 06:37:55;;;;;;;8.55;5.62;;;;;;;24.28;51.93;101133.66;1789457;80;21427;-77
2021/08/13 06:40:21;;;;;;;10.23;5.03;;;;;;;24.12;51.70;101132.50;1789315;80;20989;-76
2021/08/13 06:42:48;;;;;;;11.50;5.47;;;;;;;24.16;51.57;101130.98;1789589;80;21941;-76
2021/08/13 06:45:18;;;;;;;9.10;5.22;;;;;;;24.30;51.41;101132.89;1789170;80;20998;-76
2021/08/13 06:47:44;;;;;;;7.45;5.37;;;;;;;24.38;51.26;101133.32;1789565;80;21035;-76
2021/08/13 06:50:13;;;;;;;12.07;4.35;;;;;;;24.52;51.15;101137.14;1789306;80;20990;-76
2021/08/13 06:52:39;;;;;;;10.37;5.40;;;;;;;24.75;51.04;101131.56;1758471;80;20963;-76
2021/08/13 06:55:06;;;;;;;9.60;4.92;;;;;;;24.85;50.86;101128.52;1791193;78;22075;-76
2021/08/13 06:57:32;;;;;;;7.67;4.58;;;;;;;24.97;50.61;101124.36;1815317;78;21014;-76
2021/08/13 07:00:02;;;;;;;8.25;4.42;;;;;;;25.12;50.44;101127.89;1815960;78;21045;-76
2021/08/13 07:02:28;;;;;;;6.42;4.50;;;;;;;25.15;50.27;101121.39;1801326;78;20990;-76
2021/08/13 07:04:54;;;;;;;4.75;3.98;;;;;;;24.97;49.86;101112.61;1796520;78;21101;-77
2021/08/13 07:07:20;;;;;;;7.92;4.37;;;;;;;24.80;49.76;101108.48;1786618;78;21811;-77
2021/08/13 07:09:47;;;;;;;11.73;4.67;;;;;;;24.93;49.75;101116.91;1788960;79;21025;-77
2021/08/13 07:12:17;;;;;;;12.53;4.00;;;;;;;25.10;49.57;101115.84;1794487;78;20979;-77
2021/08/13 07:14:43;;;;;;;11.57;4.22;;;;;;;24.97;49.25;101118.07;1772024;80;21025;-77
2021/08/13 07:17:09;;;;;;;8.83;4.83;;;;;;;24.81;49.18;101111.47;1789777;80;21013;-77
2021/08/13 07:19:35;;;;;;;10.05;4.08;;;;;;;24.90;49.11;101119.59;1789561;78;21839;-77
2021/08/13 07:22:02;;;;;;;7.35;4.15;;;;;;;25.02;48.94;101114.87;1789995;80;21015;-77
2021/08/13 07:24:28;;;;;;;7.95;4.53;;;;;;;25.22;48.91;101111.67;1789675;80;21038;-77
2021/08/13 07:26:54;;;;;;;9.93;4.35;;;;;;;25.58;48.81;101113.88;1789619;80;21039;-76
2021/08/13 07:29:21;;;;;;;13.93;4.35;;;;;;;25.76;48.57;101110.02;1789948;80;20987;-77
2021/08/13 07:31:48;;;;;;;7.67;4.50;;;;;;;25.68;48.43;101106.38;1792402;80;22544;-76
2021/08/13 07:34:14;;;;;;;7.33;4.10;;;;;;;25.75;48.28;101109.75;1792865;80;20954;-76
2021/08/13 07:36:40;;;;;;;15.05;4.53;;;;;;;25.92;48.13;101095.50;1792509;80;20998;-77
2021/08/13 07:39:06;;;;;;;8.08;4.12;;;;;;;26.01;48.00;101098.05;1792749;80;21065;-77
2021/08/13 07:41:32;;;;;;;7.92;3.90;;;;;;;26.31;47.91;101094.90;1792486;80;20986;-77
2021/08/13 07:43:58;;;;;;;13.28;3.95;;;;;;;26.46;47.62;101098.34;1792866;80;21925;-77
2021/08/13 07:46:24;;;;;;;7.17;4.00;;;;;;;26.61;47.49;101101.22;1792786;80;20973;-77
2021/08/13 07:48:50;;;;;;;6.92;3.60;;;;;;;26.76;47.21;101100.00;1792758;80;21002;-77
2021/08/13 07:51:16;;;;;;;8.50;4.83;;;;;;;26.63;47.10;101099.06;1792497;80;21535;-77
2021/08/13 07:53:42;;;;;;;8.23;4.50;;;;;;;26.50;46.99;101100.83;1792514;80;20941;-77
2021/08/13 07:56:08;;;;;;;10.38;3.80;;;;;;;26.42;46.87;101105.41;1792771;80;21828;-77
2021/08/13 07:58:36;;;;;;;5.12;4.12;;;;;;;26.52;46.84;101102.24;1792677;80;21280;-77
2021/08/13 08:01:02;;;;;;;7.58;4.62;;;;;;;26.77;46.70;101103.87;1793065;80;21446;-77
2021/08/13 08:03:28;;;;;;;8.18;4.50;;;;;;;27.01;46.56;101107.11;1792597;80;20883;-77
2021/08/13 08:05:54;;;;;;;7.20;4.10;;;;;;;27.10;46.36;101103.33;1792839;80;21541;-77
2021/08/13 08:08:20;;;;;;;5.87;4.50;;;;;;;27.23;46.22;101105.08;1790445;80;22614;-77
2021/08/13 08:10:47;;;;;;;21.45;4.95;;;;;;;27.39;46.11;101101.08;1789679;80;20975;-77
2021/08/13 08:13:15;;;;;;;6.75;3.95;;;;;;;27.58;46.01;101096.86;1789890;80;21030;-77
2021/08/13 08:15:41;;;;;;;6.40;3.55;;;;;;;27.71;45.82;101086.78;1781822;80;21149;-77
2021/08/13 08:18:08;;;;;;;4.35;3.65;;;;;;;27.79;45.49;101087.66;1770001;81;21461;-77
2021/08/13 08:20:34;;;;;;;8.30;3.92;;;;;;;27.88;45.25;101091.52;1773160;79;21837;-77
2021/08/13 08:23:00;;;;;;;8.40;3.83;;;;;;;27.59;44.88;101088.91;1781213;80;21030;-77
2021/08/13 08:25:26;;;;;;;6.20;3.52;;;;;;;27.42;44.89;101092.33;1781251;80;21597;-77
2021/08/13 08:27:52;;;;;;;4.03;3.37;;;;;;;27.58;44.76;101083.16;1781310;79;21013;-77
2021/08/13 08:30:18;;;;;;;5.42;3.50;;;;;;;27.76;44.65;101088.20;1781513;79;21009;-77
2021/08/13 08:32:44;;;;;;;3.33;2.95;;;;;;;27.95;44.55;101090.73;1781206;80;21692;-77
2021/08/13 08:35:11;;;;;;;9.98;2.98;;;;;;;27.98;44.25;101094.31;1781111;80;20994;-78
2021/08/13 08:37:55;;;;;;;6.50;3.08;;;;;;;27.76;43.87;101092.31;1781551;80;20949;-77
2021/08/13 08:40:34;;;;;;;5.28;3.02;;;;;;;27.85;43.76;101096.17;1780912;80;21088;-77
2021/08/13 08:43:03;;;;;;;7.15;3.33;;;;;;;27.92;43.34;101094.56;1781576;80;21014;-77
2021/08/13 08:45:32;;;;;;;4.33;3.40;;;;;;;27.65;42.96;101089.23;1781289;80;21917;-77
2021/08/13 08:48:07;;;;;;;7.00;3.20;;;;;;;27.55;42.92;101086.44;1781631;80;20970;-78
2021/08/13 08:50:35;;;;;;;5.33;3.30;;;;;;;27.68;42.82;101087.33;1780964;80;20994;-77
2021/08/13 08:53:04;;;;;;;5.03;2.95;;;;;;;27.86;42.80;101089.61;1781599;80;20991;-77
2021/08/13 08:55:31;;;;;;;3.80;2.35;;;;;;;27.99;42.62;101085.00;1781469;80;21435;-77
2021/08/13 08:57:57;;;;;;;7.22;3.08;;;;;;;28.19;42.62;101089.20;1781478;80;21838;-78
2021/08/13 09:00:23;;;;;;;4.20;3.10;;;;;;;28.34;42.44;101083.48;1781329;80;20980;-77
2021/08/13 09:02:50;;;;;;;5.42;2.75;;;;;;;28.44;42.46;101095.86;1782739;79;20991;-78
2021/08/13 09:05:16;;;;;;;3.45;2.72;;;;;;;28.50;42.38;101087.93;1781516;80;21391;-78
2021/08/13 09:07:42;;;;;;;5.83;2.85;;;;;;;28.57;42.16;101093.98;1781350;80;20920;-78
2021/08/13 09:10:11;;;;;;;5.72;3.85;;;;;;;28.42;41.86;101095.31;1755218;80;21872;-78
2021/08/13 09:12:38;;;;;;;3.58;2.98;;;;;;;28.49;41.82;101086.27;1786796;80;21002;-77
2021/08/13 09:15:07;;;;;;;6.85;3.12;;;;;;;28.53;41.72;101092.88;1786777;80;21525;-78
2021/08/13 09:17:33;;;;;;;6.55;3.30;;;;;;;28.35;41.56;101088.72;1795977;79;21025;-78
2021/08/13 09:19:59;;;;;;;6.10;3.20;;;;;;;28.20;41.47;101091.41;1795205;78;21045;-78
2021/08/13 09:22:25;;;;;;;4.15;2.83;;;;;;;28.19;41.46;101092.49;1795902;79;21805;-78
2021/08/13 09:24:53;;;;;;;13.35;3.15;;;;;;;28.42;41.51;101099.43;1795094;80;20979;-78
2021/08/13 09:27:26;;;;;;;6.30;3.65;;;;;;;28.59;41.53;101092.61;1795716;80;21104;-78
2021/08/13 09:30:14;;;;;;;9.08;3.52;;;;;;;28.80;41.53;101088.53;1795281;79;20994;-77
2021/08/13 09:33:05;;;;;;;6.65;3.27;;;;;;;28.75;41.32;101089.34;1791739;79;21000;-77
2021/08/13 09:35:39;;;;;;;4.78;2.72;;;;;;;28.84;41.41;101090.47;1795488;80;23001;-77
2021/08/13 09:38:14;;;;;;;3.52;3.08;;;;;;;28.96;41.23;101092.38;1795638;78;20990;-77
2021/08/13 09:40:43;;;;;;;4.85;2.80;;;;;;;29.06;41.06;101092.37;1795827;79;21028;-77
2021/08/13 09:43:10;;;;;;;9.63;3.20;;;;;;;29.03;40.88;101092.92;1795570;79;20982;-77
2021/08/13 09:45:36;;;;;;;3.72;2.58;;;;;;;28.99;40.64;101089.07;1796136;79;21025;-78
2021/08/13 09:48:02;;;;;;;7.35;3.52;;;;;;;29.00;40.36;101086.61;1795602;79;21890;-77
2021/08/13 09:50:41;;;;;;;3.67;2.65;;;;;;;28.90;39.91;101087.98;1795323;79;21009;-77
2021/08/13 09:53:13;;;;;;;6.47;3.15;;;;;;;28.96;39.76;101088.83;1796230;79;21014;-77
2021/08/13 09:55:41;;;;;;;3.47;3.02;;;;;;;29.04;39.59;101093.75;1795778;79;21033;-77
2021/08/13 09:58:09;;;;;;;7.30;3.52;;;;;;;29.00;39.53;101096.22;1795929;79;21451;-77
2021/08/13 10:00:46;;;;;;;4.97;3.37;;;;;;;28.95;39.41;101094.04;1795875;79;21821;-77
2021/08/13 10:03:13;;;;;;;6.20;2.90;;;;;;;29.00;39.40;101088.53;1795268;79;21017;-77
2021/08/13 10:05:39;;;;;;;7.00;3.00;;;;;;;29.10;39.19;101089.34;1795760;79;21439;-77
2021/08/13 10:08:06;;;;;;;3.12;2.70;;;;;;;29.14;38.85;101084.95;1795970;79;21454;-77
2021/08/13 10:10:38;;;;;;;6.00;3.37;;;;;;;29.10;38.54;101079.73;1795865;79;21486;-78
2021/08/13 10:13:09;;;;;;;10.93;3.37;;;;;;;29.17;38.37;101088.52;1795642;79;21997;-77
2021/08/13 10:15:39;;;;;;;5.28;2.87;;;;;;;29.24;38.07;101074.49;1795568;79;21009;-77
2021/08/13 10:18:07;;;;;;;6.37;3.62;;;;;;;29.29;38.01;101071.78;1792702;80;20993;-77
2021/08/13 10:20:38;;;;;;;6.83;3.75;;;;;;;29.37;38.02;101073.14;1792874;80;21450;-77
2021/08/13 10:23:04;;;;;;;6.95;3.30;;;;;;;29.21;38.04;101072.30;1792612;80;20974;-77
2021/08/13 10:25:30;;;;;;;4.70;3.40;;;;;;;29.21;37.99;101081.37;1792941;80;21894;-77
2021/08/13 10:27:56;;;;;;;6.65;3.65;;;;;;;29.25;38.07;101074.23;1792991;80;21033;-78
2021/08/13 10:30:23;;;;;;;7.12;3.52;;;;;;;29.26;38.05;101066.84;1763791;80;20990;-77
2021/08/13 10:32:56;;;;;;;4.90;3.02;;;;;;;29.32;38.00;101067.64;1792841;80;21504;-77
2021/08/13 10:35:20;;;;;;;8.53;3.40;;;;;;;29.34;37.99;101066.29;1792347;80;21474;-78
2021/08/13 10:37:47;;;;;;;5.67;3.33;;;;;;;29.36;38.05;101060.50;1792676;79;22848;-77
2021/08/13 10:40:13;;;;;;;8.43;3.80;;;;;;;29.39;37.87;101069.01;1792869;80;21407;-77
2021/08/13 10:42:44;;;;;;;8.95;3.95;;;;;;;29.29;37.83;101064.91;1793084;80;20985;-77
2021/08/13 10:45:14;;;;;;;5.47;3.45;;;;;;;29.30;37.88;101062.44;1793030;80;21034;-77
2021/08/13 10:48:05;;;;;;;3.52;3.02;;;;;;;29.43;37.92;101058.28;1793150;80;21502;-77
2021/08/13 10:50:32;;;;;;;4.35;3.77;;;;;;;29.50;37.94;101064.31;1793074;80;21829;-77
2021/08/13 10:52:58;;;;;;;4.37;3.55;;;;;;;29.45;37.89;101054.72;1792866;80;20901;-77
2021/08/13 10:55:53;;;;;;;4.85;3.27;;;;;;;29.27;37.66;101052.56;1793090;80;20966;-77
2021/08/13 10:58:40;;;;;;;4.47;3.15;;;;;;;29.02;37.58;101043.22;1790642;80;20944;-77
2021/08/13 11:01:22;;;;;;;20.37;4.53;;;;;;;29.17;37.63;101055.55;1793081;80;21059;-78
2021/08/13 11:03:59;;;;;;;9.75;3.87;;;;;;;29.21;37.54;101053.89;1801992;79;21899;-78
2021/08/13 11:06:42;;;;;;;5.92;4.47;;;;;;;29.29;37.63;101049.80;1786646;79;21411;-77
2021/08/13 11:09:13;;;;;;;5.83;3.98;;;;;;;29.22;37.52;101047.31;1784420;79;20987;-77
2021/08/13 11:11:57;;;;;;;5.45;4.50;;;;;;;29.02;37.34;101041.84;1808718;79;20986;-77
2021/08/13 11:14:33;;;;;;;5.00;3.67;;;;;;;28.99;37.38;101050.62;1789019;79;21025;-78
2021/08/13 11:16:59;;;;;;;7.10;3.85;;;;;;;29.02;37.39;101040.48;1789687;79;21959;-78
2021/08/13 11:19:26;;;;;;;14.10;4.47;;;;;;;29.04;37.20;101036.89;1794299;79;21041;-78
2021/08/13 11:21:58;;;;;;;6.33;3.25;;;;;;;28.97;37.18;101047.34;1801044;78;20991;-78
2021/08/13 11:24:48;;;;;;;10.88;4.78;;;;;;;29.02;37.23;101032.78;1793230;79;21622;-78
2021/08/13 11:27:14;;;;;;;6.40;4.40;;;;;;;29.06;37.25;101026.44;1789009;79;21449;-79
2021/08/13 11:29:44;;;;;;;4.78;4.10;;;;;;;28.98;37.16;101024.81;1790687;79;21787;-78